Terminal Aerodrome Forecast
Issued by NWS Wichita, KS

Home | Current Version | Previous Version | Graphics & Text | Print | Product List | Glossary On
Versions: 1 2 3 4 5 6 7 8 9 10 11 12 13 14 15 16
000
FTUS43 KICT 041135
TAFICT
TAF
KICT 041135Z 0412/0512 VRB04KT 6SM BR VCSH SCT005 BKN017
     FM041500 32008KT P6SM FEW017
     FM041800 31006KT P6SM SKC=

USA.gov is the U.S. government's official web portal to all federal, state and local government web resources and services.